createdAt,value
2022-08-17T00:00:43.055Z,10.57
2022-08-17T00:03:13.646Z,11.57
2022-08-17T00:05:44.813Z,11.20
2022-08-17T00:08:16.121Z,11.67
2022-08-17T00:10:46.426Z,11.17
2022-08-17T00:13:17.257Z,11.10
2022-08-17T00:15:46.045Z,11.10
2022-08-17T00:19:01.060Z,11.47
2022-08-17T00:21:10.585Z,10.90
2022-08-17T00:23:47.814Z,11.70
2022-08-17T00:26:44.383Z,11.73
2022-08-17T00:29:06.606Z,11.33
2022-08-17T00:31:35.573Z,13.23
2022-08-17T00:34:03.674Z,11.57
2022-08-17T00:36:31.805Z,12.00
2022-08-17T00:39:01.220Z,11.97
2022-08-17T00:41:29.380Z,11.83
2022-08-17T00:44:01.791Z,12.00
2022-08-17T00:46:32.211Z,11.87
2022-08-17T00:49:01.167Z,11.30
2022-08-17T00:51:36.036Z,11.73
2022-08-17T00:54:11.023Z,11.60
2022-08-17T00:56:42.768Z,11.90
2022-08-17T00:59:13.410Z,11.87
2022-08-17T01:01:41.870Z,11.57
2022-08-17T01:04:11.911Z,11.80
2022-08-17T01:06:42.802Z,11.93
2022-08-17T01:09:12.373Z,11.63
2022-08-17T01:11:40.622Z,11.87
2022-08-17T01:14:09.277Z,11.47
2022-08-17T01:16:38.742Z,11.73
2022-08-17T01:19:11.973Z,11.67
2022-08-17T01:21:48.026Z,10.90
2022-08-17T01:24:18.720Z,12.00
2022-08-17T01:26:47.359Z,11.33
2022-08-17T01:29:17.324Z,11.27
2022-08-17T01:31:48.501Z,10.63
2022-08-17T01:34:19.450Z,10.87
2022-08-17T01:36:50.485Z,10.33
2022-08-17T01:39:33.214Z,10.33
2022-08-17T01:42:07.181Z,11.33
2022-08-17T01:44:35.687Z,11.07
2022-08-17T01:47:07.032Z,10.90
2022-08-17T01:49:35.202Z,12.03
2022-08-17T01:52:08.238Z,11.43
2022-08-17T01:54:38.930Z,12.20
2022-08-17T01:57:07.334Z,12.07
2022-08-17T01:59:35.617Z,12.37
2022-08-17T02:02:05.257Z,12.50
2022-08-17T02:04:33.334Z,12.07
2022-08-17T02:07:01.517Z,11.80
2022-08-17T02:09:30.787Z,11.40
2022-08-17T02:12:38.474Z,11.87
2022-08-17T02:14:51.822Z,11.90
2022-08-17T02:17:20.028Z,11.43
2022-08-17T02:19:48.095Z,11.77
2022-08-17T02:22:18.226Z,11.97
2022-08-17T02:24:59.932Z,12.03
2022-08-17T02:27:31.624Z,11.60
2022-08-17T02:29:59.683Z,11.40
2022-08-17T02:32:28.819Z,11.33
2022-08-17T02:34:57.345Z,11.50
2022-08-17T02:37:25.658Z,11.43
2022-08-17T02:39:53.902Z,12.13
2022-08-17T02:42:27.817Z,11.30
2022-08-17T02:44:57.287Z,11.37
2022-08-17T02:47:25.625Z,11.20
2022-08-17T02:49:55.764Z,11.90
2022-08-17T02:52:43.270Z,11.77
2022-08-17T02:55:17.241Z,11.10
2022-08-17T02:57:45.792Z,11.70
2022-08-17T03:00:19.099Z,11.80
2022-08-17T03:02:47.420Z,11.90
2022-08-17T03:05:18.200Z,11.77
2022-08-17T03:07:46.670Z,11.00
2022-08-17T03:10:15.536Z,11.93
2022-08-17T03:12:44.592Z,12.10
2022-08-17T03:15:19.993Z,12.07
2022-08-17T03:17:48.305Z,11.90
2022-08-17T03:20:17.195Z,11.97
2022-08-17T03:22:48.129Z,11.87
2022-08-17T03:25:24.121Z,12.07
2022-08-17T03:27:52.186Z,12.33
2022-08-17T03:30:22.573Z,11.70
2022-08-17T03:32:52.977Z,12.10
2022-08-17T03:35:25.013Z,12.33
2022-08-17T03:38:01.018Z,11.97
2022-08-17T03:40:34.549Z,11.93
2022-08-17T03:43:18.251Z,12.23
2022-08-17T03:46:05.222Z,12.30
2022-08-17T03:48:56.183Z,12.23
2022-08-17T03:51:42.942Z,12.57
2022-08-17T03:54:29.398Z,12.13
2022-08-17T03:57:03.820Z,11.60
2022-08-17T03:59:32.782Z,11.97
2022-08-17T04:02:07.417Z,12.10
2022-08-17T04:04:35.734Z,11.53
2022-08-17T04:07:03.813Z,11.10
2022-08-17T04:09:31.822Z,10.97
2022-08-17T04:12:02.419Z,11.67
2022-08-17T04:14:36.347Z,12.77
2022-08-17T04:17:21.229Z,12.23
2022-08-17T04:19:49.267Z,13.07
2022-08-17T04:22:31.073Z,13.07
2022-08-17T04:25:14.769Z,12.57
2022-08-17T04:27:42.790Z,12.30
2022-08-17T04:30:11.979Z,13.50
2022-08-17T04:33:03.666Z,13.27
2022-08-17T04:35:36.775Z,13.23
2022-08-17T04:38:04.956Z,13.50
2022-08-17T04:41:05.512Z,13.23
2022-08-17T04:43:34.776Z,12.73
2022-08-17T04:46:05.265Z,12.97
2022-08-17T04:48:37.562Z,13.97
2022-08-17T04:51:09.680Z,13.77
2022-08-17T04:53:38.903Z,13.83
2022-08-17T04:56:07.462Z,14.30
2022-08-17T04:58:40.150Z,14.07
2022-08-17T05:01:08.431Z,13.57
2022-08-17T05:03:37.949Z,14.70
2022-08-17T05:06:06.512Z,15.03
2022-08-17T05:08:34.558Z,14.70
2022-08-17T05:11:02.639Z,15.40
2022-08-17T05:13:30.830Z,15.60
2022-08-17T05:16:02.015Z,14.80
2022-08-17T05:18:31.265Z,15.53
2022-08-17T05:21:01.074Z,16.13
2022-08-17T05:23:41.588Z,15.90
2022-08-17T05:26:25.573Z,16.17
2022-08-17T05:28:57.113Z,16.47
2022-08-17T05:31:27.858Z,16.20
2022-08-17T05:33:55.929Z,16.97
2022-08-17T05:36:41.708Z,15.90
2022-08-17T05:39:16.319Z,15.93
2022-08-17T05:41:46.943Z,16.00
2022-08-17T05:44:15.001Z,16.23
2022-08-17T05:46:48.646Z,15.97
2022-08-17T05:49:19.974Z,15.10
2022-08-17T05:52:14.790Z,14.83
2022-08-17T05:55:00.028Z,16.20
2022-08-17T05:57:39.593Z,15.70
2022-08-17T06:00:20.163Z,14.50
2022-08-17T06:03:01.914Z,13.53
2022-08-17T06:05:51.755Z,15.37
2022-08-17T06:08:29.694Z,14.77
2022-08-17T06:11:07.900Z,14.67
2022-08-17T06:13:50.873Z,14.60
2022-08-17T06:16:33.554Z,14.53
2022-08-17T06:19:07.591Z,13.20
2022-08-17T06:21:39.350Z,12.70
2022-08-17T06:24:21.201Z,13.18
2022-08-17T06:26:49.955Z,11.90
2022-08-17T06:29:28.530Z,13.05
2022-08-17T06:31:57.303Z,13.13
2022-08-17T06:34:25.476Z,13.60
2022-08-17T06:37:03.855Z,13.02
2022-08-17T06:39:47.356Z,11.80
2022-08-17T06:43:02.465Z,12.40
2022-08-17T06:45:18.680Z,12.05
2022-08-17T06:47:54.078Z,12.13
2022-08-17T06:50:30.121Z,12.10
2022-08-17T06:53:05.580Z,11.95
2022-08-17T06:55:45.209Z,11.70
2022-08-17T06:58:29.609Z,11.57
2022-08-17T07:01:01.638Z,11.60
2022-08-17T07:03:37.615Z,10.93
2022-08-17T07:06:15.116Z,11.50
2022-08-17T07:08:52.101Z,10.77
2022-08-17T07:11:27.130Z,11.05
2022-08-17T07:14:03.655Z,10.50
2022-08-17T07:16:36.938Z,11.38
2022-08-17T07:19:07.362Z,10.68
2022-08-17T07:21:48.384Z,10.98
2022-08-17T07:24:35.599Z,10.35
2022-08-17T07:27:08.884Z,10.50
2022-08-17T07:29:41.590Z,9.57
2022-08-17T07:32:12.204Z,10.43
2022-08-17T07:35:04.537Z,9.95
2022-08-17T07:37:33.637Z,10.25
2022-08-17T07:40:16.808Z,10.02
2022-08-17T07:43:02.431Z,10.13
2022-08-17T07:45:51.995Z,10.63
2022-08-17T07:48:22.805Z,9.77
2022-08-17T07:50:54.178Z,10.30
2022-08-17T07:53:24.865Z,10.20
2022-08-17T07:55:54.712Z,10.52
2022-08-17T07:58:26.503Z,9.73
2022-08-17T08:01:06.765Z,10.05
2022-08-17T08:03:40.871Z,9.25
2022-08-17T08:06:21.644Z,10.48
2022-08-17T08:08:53.140Z,10.10
2022-08-17T08:11:31.985Z,10.27
2022-08-17T08:14:29.316Z,9.55
2022-08-17T08:17:00.134Z,10.05
2022-08-17T08:19:29.308Z,10.07
2022-08-17T08:22:03.843Z,9.48
2022-08-17T08:25:00.178Z,10.15
2022-08-17T08:27:40.408Z,9.00
2022-08-17T08:30:14.095Z,9.02
2022-08-17T08:33:00.937Z,8.88
2022-08-17T08:35:32.790Z,9.63
2022-08-17T08:38:09.469Z,9.45
2022-08-17T08:40:53.257Z,9.27
2022-08-17T08:43:32.605Z,9.32
2022-08-17T08:46:12.140Z,9.50
2022-08-17T08:49:10.135Z,9.25
2022-08-17T08:51:51.734Z,8.95
2022-08-17T08:54:33.473Z,8.70
2022-08-17T08:57:24.195Z,8.90
2022-08-17T09:00:10.823Z,8.43
2022-08-17T09:03:08.598Z,8.73
2022-08-17T09:06:04.159Z,8.77
2022-08-17T09:08:46.520Z,8.88
2022-08-17T09:11:21.297Z,8.95
2022-08-17T09:13:58.391Z,8.95
2022-08-17T09:16:33.168Z,9.45
2022-08-17T09:19:10.854Z,9.00
2022-08-17T09:21:48.431Z,8.55
2022-08-17T09:24:26.058Z,9.15
2022-08-17T09:27:01.982Z,8.52
2022-08-17T09:29:35.321Z,8.98
2022-08-17T09:32:05.861Z,9.18
2022-08-17T09:34:43.598Z,9.68
2022-08-17T09:37:23.145Z,8.18
2022-08-17T09:39:58.830Z,7.97
2022-08-17T09:42:31.974Z,8.52
2022-08-17T09:45:17.152Z,8.55
2022-08-17T09:47:53.126Z,9.48
2022-08-17T09:51:05.341Z,9.18
2022-08-17T09:53:15.230Z,9.70
2022-08-17T09:55:59.920Z,9.10
2022-08-17T09:58:37.161Z,8.10
2022-08-17T10:01:16.152Z,7.47
2022-08-17T10:04:06.002Z,7.82
2022-08-17T10:06:45.647Z,7.40
2022-08-17T10:09:18.801Z,7.88
2022-08-17T10:12:10.944Z,8.00
2022-08-17T10:14:46.694Z,8.02
2022-08-17T10:17:27.459Z,7.97
2022-08-17T10:20:01.977Z,7.35
2022-08-17T10:22:54.948Z,7.40
2022-08-17T10:25:54.801Z,6.95
2022-08-17T10:28:30.583Z,7.43
2022-08-17T10:31:33.780Z,8.43
2022-08-17T10:34:09.339Z,8.10
2022-08-17T10:36:48.282Z,8.20
2022-08-17T10:39:28.907Z,7.38
2022-08-17T10:42:01.174Z,7.28
2022-08-17T10:44:42.444Z,6.70
2022-08-17T10:47:14.473Z,7.32
2022-08-17T10:49:49.636Z,7.40
2022-08-17T10:52:49.945Z,7.30
2022-08-17T10:55:20.618Z,6.80
2022-08-17T10:57:50.710Z,6.50
2022-08-17T11:00:57.574Z,7.53
2022-08-17T11:03:26.630Z,7.28
2022-08-17T11:06:03.346Z,6.70
2022-08-17T11:08:57.442Z,6.90
2022-08-17T11:11:43.018Z,6.88
2022-08-17T11:14:30.610Z,6.75
2022-08-17T11:17:17.577Z,6.82
2022-08-17T11:20:31.176Z,6.18
2022-08-17T11:23:19.673Z,6.10
2022-08-17T11:25:52.624Z,6.30
2022-08-17T11:28:25.717Z,6.75
2022-08-17T11:30:57.129Z,6.22
2022-08-17T11:34:02.149Z,6.38
2022-08-17T11:37:03.496Z,6.22
2022-08-17T11:39:55.542Z,6.40
2022-08-17T11:42:34.387Z,6.50
2022-08-17T11:45:32.608Z,5.90
2022-08-17T11:48:29.193Z,5.70
2022-08-17T11:51:24.454Z,5.90
2022-08-17T11:54:31.131Z,5.55
2022-08-17T11:56:52.850Z,5.70
2022-08-17T11:59:58.467Z,5.10
2022-08-17T12:02:48.482Z,5.78
2022-08-17T12:05:35.036Z,6.00
2022-08-17T12:08:21.550Z,5.30
2022-08-17T12:11:07.532Z,5.43
2022-08-17T12:13:42.962Z,5.25
2022-08-17T12:16:16.189Z,4.97
2022-08-17T12:18:52.174Z,5.10
2022-08-17T12:21:27.112Z,5.20
2022-08-17T12:24:05.295Z,5.00
2022-08-17T12:26:36.203Z,4.85
2022-08-17T12:29:06.982Z,4.88
2022-08-17T12:31:44.303Z,5.00
2022-08-17T12:34:18.925Z,5.05
2022-08-17T12:36:50.258Z,5.40
2022-08-17T12:39:22.597Z,5.20
2022-08-17T12:42:02.020Z,5.45
2022-08-17T12:44:33.426Z,5.10
2022-08-17T12:47:06.890Z,5.20
2022-08-17T12:49:38.134Z,4.93
2022-08-17T12:52:14.646Z,5.32
2022-08-17T12:54:49.016Z,4.70
2022-08-17T12:57:19.913Z,5.00
2022-08-17T12:59:51.912Z,4.70
2022-08-17T13:02:38.558Z,5.60
2022-08-17T13:05:17.299Z,5.10
2022-08-17T13:07:46.807Z,5.15
2022-08-17T13:10:19.768Z,5.05
2022-08-17T13:12:49.524Z,4.88
2022-08-17T13:15:30.146Z,5.22
2022-08-17T13:18:01.345Z,4.80
2022-08-17T13:20:31.204Z,5.13
2022-08-17T13:23:01.612Z,5.60
2022-08-17T13:25:30.893Z,4.93
2022-08-17T13:27:59.156Z,5.20
2022-08-17T13:30:33.156Z,5.03
2022-08-17T13:33:04.953Z,5.05
2022-08-17T13:35:45.911Z,5.25
2022-08-17T13:38:36.521Z,5.20
2022-08-17T13:41:07.423Z,5.20
2022-08-17T13:43:45.033Z,4.97
2022-08-17T13:46:19.664Z,5.15
2022-08-17T13:48:57.564Z,5.63
2022-08-17T13:51:33.491Z,5.32
2022-08-17T13:54:07.967Z,5.20
2022-08-17T13:56:46.652Z,4.95
2022-08-17T13:59:17.346Z,5.30
2022-08-17T14:02:06.228Z,5.10
2022-08-17T14:04:35.088Z,5.60
2022-08-17T14:07:34.767Z,5.38
2022-08-17T14:10:06.557Z,5.47
2022-08-17T14:12:35.994Z,5.53
2022-08-17T14:15:04.590Z,5.60
2022-08-17T14:17:38.108Z,6.20
2022-08-17T14:20:10.311Z,5.72
2022-08-17T14:22:46.375Z,6.00
2022-08-17T14:25:17.551Z,6.25
2022-08-17T14:27:52.986Z,5.93
2022-08-17T14:30:24.902Z,5.53
2022-08-17T14:32:53.722Z,5.97
2022-08-17T14:35:23.948Z,5.25
2022-08-17T14:37:54.209Z,5.78
2022-08-17T14:40:24.395Z,6.10
2022-08-17T14:42:55.438Z,5.97
2022-08-17T14:45:30.172Z,5.47
2022-08-17T14:48:02.680Z,6.15
2022-08-17T14:50:31.806Z,5.88
2022-08-17T14:53:01.752Z,6.03
2022-08-17T14:55:31.024Z,6.20
2022-08-17T14:57:59.259Z,5.68
2022-08-17T15:00:28.496Z,6.32
2022-08-17T15:02:58.956Z,6.57
2022-08-17T15:05:33.531Z,6.15
2022-08-17T15:08:04.628Z,6.22
2022-08-17T15:10:33.786Z,6.72
2022-08-17T15:13:01.944Z,5.95
2022-08-17T15:15:30.874Z,6.38
2022-08-17T15:17:59.873Z,5.97
2022-08-17T15:20:30.911Z,6.00
2022-08-17T15:22:59.591Z,5.47
2022-08-17T15:25:31.676Z,5.80
2022-08-17T15:28:00.794Z,5.80
2022-08-17T15:30:30.027Z,5.68
2022-08-17T15:32:59.485Z,6.15
2022-08-17T15:35:31.930Z,6.20
2022-08-17T15:38:07.890Z,5.90
2022-08-17T15:40:41.392Z,5.80
2022-08-17T15:43:11.610Z,6.00
2022-08-17T15:45:40.389Z,6.10
2022-08-17T15:48:08.947Z,5.60
2022-08-17T15:50:37.009Z,5.40
2022-08-17T15:53:05.249Z,5.95
2022-08-17T15:55:34.699Z,5.75
2022-08-17T15:58:04.154Z,5.90
2022-08-17T16:00:42.020Z,5.55
2022-08-17T16:04:01.553Z,6.20
2022-08-17T16:06:09.045Z,5.55
2022-08-17T16:08:41.484Z,6.18
2022-08-17T16:11:10.572Z,7.13
2022-08-17T16:13:40.707Z,7.13
2022-08-17T16:16:09.437Z,7.38
2022-08-17T16:18:38.853Z,7.72
2022-08-17T16:21:29.564Z,7.75
2022-08-17T16:24:12.770Z,7.45
2022-08-17T16:26:44.898Z,7.57
2022-08-17T16:29:14.357Z,8.40
2022-08-17T16:31:44.832Z,8.13
2022-08-17T16:34:17.857Z,7.60
2022-08-17T16:36:55.332Z,7.65
2022-08-17T16:39:26.513Z,6.90
2022-08-17T16:41:55.644Z,7.65
2022-08-17T16:44:26.131Z,7.22
2022-08-17T16:46:54.213Z,7.03
2022-08-17T16:49:36.276Z,7.38
2022-08-17T16:52:09.873Z,7.00
2022-08-17T16:54:40.570Z,7.40
2022-08-17T16:57:08.585Z,7.43
2022-08-17T16:59:41.853Z,7.10
2022-08-17T17:02:15.223Z,7.53
2022-08-17T17:04:53.359Z,7.30
2022-08-17T17:07:45.699Z,7.50
2022-08-17T17:10:16.610Z,6.95
2022-08-17T17:13:02.715Z,7.57
2022-08-17T17:15:44.737Z,7.00
2022-08-17T17:18:14.769Z,7.03
2022-08-17T17:20:48.695Z,7.20
2022-08-17T17:23:41.465Z,6.82
2022-08-17T17:26:21.113Z,7.30
2022-08-17T17:29:01.981Z,7.50
2022-08-17T17:31:39.169Z,7.20
2022-08-17T17:34:11.363Z,7.68
2022-08-17T17:36:42.962Z,7.55
2022-08-17T17:39:14.987Z,7.80
2022-08-17T17:41:48.225Z,7.30
2022-08-17T17:44:19.868Z,7.85
2022-08-17T17:46:54.125Z,7.78
2022-08-17T17:49:22.599Z,8.05
2022-08-17T17:52:08.730Z,7.70
2022-08-17T17:54:49.127Z,7.93
2022-08-17T17:57:26.957Z,7.88
2022-08-17T18:00:02.753Z,7.47
2022-08-17T18:02:51.244Z,7.97
2022-08-17T18:05:38.811Z,8.45
2022-08-17T18:08:19.325Z,8.88
2022-08-17T18:10:55.743Z,8.98
2022-08-17T18:13:36.320Z,8.73
2022-08-17T18:16:09.186Z,8.27
2022-08-17T18:18:40.101Z,8.70
2022-08-17T18:21:16.796Z,9.38
2022-08-17T18:23:56.240Z,8.70
2022-08-17T18:26:52.222Z,8.48
2022-08-17T18:29:47.860Z,8.38
2022-08-17T18:32:44.867Z,8.20
2022-08-17T18:35:37.846Z,8.00
2022-08-17T18:38:34.861Z,8.40
2022-08-17T18:41:13.155Z,8.63
2022-08-17T18:43:53.550Z,8.45
2022-08-17T18:46:37.791Z,8.88
2022-08-17T18:49:24.915Z,8.63
2022-08-17T18:52:10.891Z,8.52
2022-08-17T18:54:40.630Z,8.55
2022-08-17T18:57:12.118Z,9.57
2022-08-17T18:59:43.158Z,9.18
2022-08-17T19:02:37.295Z,8.93
2022-08-17T19:05:13.211Z,8.18
2022-08-17T19:07:45.343Z,8.57
2022-08-17T19:10:22.624Z,8.38
2022-08-17T19:13:00.360Z,8.43
2022-08-17T19:15:34.321Z,8.68
2022-08-17T19:18:06.851Z,8.35
2022-08-17T19:20:38.596Z,8.07
2022-08-17T19:23:23.715Z,8.70
2022-08-17T19:25:54.438Z,8.75
2022-08-17T19:28:25.740Z,8.63
2022-08-17T19:30:59.394Z,8.60
2022-08-17T19:33:27.824Z,8.60
2022-08-17T19:36:05.340Z,8.55
2022-08-17T19:38:43.272Z,8.23
2022-08-17T19:41:20.273Z,8.23
2022-08-17T19:44:24.830Z,8.50
2022-08-17T19:46:59.544Z,9.05
2022-08-17T19:49:41.225Z,8.80
2022-08-17T19:52:24.091Z,8.48
2022-08-17T19:54:59.381Z,8.48
2022-08-17T19:57:37.584Z,8.95
2022-08-17T20:00:12.171Z,9.38
2022-08-17T20:02:51.134Z,8.88
2022-08-17T20:05:23.627Z,8.88
2022-08-17T20:07:56.362Z,8.88
2022-08-17T20:10:34.613Z,8.85
2022-08-17T20:13:10.144Z,9.32
2022-08-17T20:15:42.877Z,9.15
2022-08-17T20:18:19.006Z,8.88
2022-08-17T20:20:55.930Z,8.95
2022-08-17T20:23:37.853Z,8.88
2022-08-17T20:26:18.945Z,9.10
2022-08-17T20:29:07.522Z,9.30
2022-08-17T20:31:45.555Z,9.48
2022-08-17T20:34:33.574Z,9.38
2022-08-17T20:37:08.984Z,9.00
2022-08-17T20:39:41.156Z,9.38
2022-08-17T20:42:28.142Z,9.80
2022-08-17T20:44:58.817Z,10.40
2022-08-17T20:47:30.146Z,10.05
2022-08-17T20:50:04.326Z,10.07
2022-08-17T20:52:53.425Z,9.82
2022-08-17T20:55:52.762Z,10.05
2022-08-17T20:58:49.053Z,9.63
2022-08-17T21:01:35.093Z,9.35
2022-08-17T21:04:08.089Z,9.10
2022-08-17T21:06:56.238Z,9.38
2022-08-17T21:09:31.457Z,9.48
2022-08-17T21:12:04.544Z,9.57
2022-08-17T21:14:43.105Z,10.13
2022-08-17T21:20:33.211Z,9.00
2022-08-17T21:23:27.265Z,9.38
2022-08-17T21:26:15.616Z,9.63
2022-08-17T21:29:30.371Z,9.25
2022-08-17T21:32:19.254Z,9.32
2022-08-17T21:35:28.285Z,9.55
2022-08-17T21:38:05.007Z,9.55
2022-08-17T21:40:34.740Z,9.65
2022-08-17T21:43:18.583Z,9.45
2022-08-17T21:45:56.742Z,9.38
2022-08-17T21:48:29.281Z,9.90
2022-08-17T21:51:01.684Z,9.70
2022-08-17T21:53:37.797Z,10.73
2022-08-17T21:56:07.112Z,9.47
2022-08-17T21:58:40.288Z,9.10
2022-08-17T22:01:24.717Z,9.17
2022-08-17T22:04:01.212Z,9.10
2022-08-17T22:06:39.087Z,10.10
2022-08-17T22:09:16.021Z,9.13
2022-08-17T22:11:53.557Z,9.53
2022-08-17T22:14:52.554Z,9.50
2022-08-17T22:17:20.135Z,9.07
2022-08-17T22:19:53.883Z,9.60
2022-08-17T22:22:30.306Z,9.23
2022-08-17T22:25:01.509Z,9.27
2022-08-17T22:27:46.838Z,9.47
2022-08-17T22:30:34.437Z,9.23
2022-08-17T22:33:18.495Z,9.73
2022-08-17T22:35:48.326Z,9.43
2022-08-17T22:38:34.724Z,9.60
2022-08-17T22:41:25.576Z,9.37
2022-08-17T22:43:57.482Z,10.43
2022-08-17T22:46:26.653Z,10.27
2022-08-17T22:48:59.757Z,10.33
2022-08-17T22:51:30.837Z,10.50
2022-08-17T22:54:20.441Z,10.03
2022-08-17T22:57:09.901Z,10.50
2022-08-17T22:59:48.269Z,10.63
2022-08-17T23:02:20.803Z,10.70
2022-08-17T23:04:53.633Z,10.50
2022-08-17T23:07:23.156Z,10.50
2022-08-17T23:09:53.018Z,10.17
2022-08-17T23:12:27.093Z,10.27
2022-08-17T23:15:00.661Z,10.10
2022-08-17T23:17:33.855Z,10.20
2022-08-17T23:20:06.158Z,10.67
2022-08-17T23:22:36.777Z,10.60
2022-08-17T23:25:05.825Z,11.00
2022-08-17T23:27:33.897Z,10.60
2022-08-17T23:30:01.935Z,10.37
2022-08-17T23:32:30.013Z,10.37
2022-08-17T23:34:59.149Z,10.67
2022-08-17T23:37:27.800Z,10.87
2022-08-17T23:39:57.235Z,10.70
2022-08-17T23:42:25.277Z,10.43
2022-08-17T23:44:53.251Z,9.90
2022-08-17T23:47:21.337Z,10.60
2022-08-17T23:49:49.438Z,10.53
2022-08-17T23:52:23.049Z,10.27
2022-08-17T23:54:51.282Z,10.87
2022-08-17T23:57:33.793Z,10.67
